createdAt,value
2017-07-04T00:00:52.502Z,1010.81
2017-07-04T00:01:53.925Z,1010.79
2017-07-04T00:02:55.350Z,1010.80
2017-07-04T00:03:56.775Z,1010.80
2017-07-04T00:04:58.200Z,1010.78
2017-07-04T00:05:59.634Z,1010.78
2017-07-04T00:07:01.056Z,1010.80
2017-07-04T00:08:02.484Z,1010.78
2017-07-04T00:09:03.919Z,1010.78
2017-07-04T00:10:05.344Z,1010.78
2017-07-04T00:11:06.775Z,1010.78
2017-07-04T00:12:08.202Z,1010.71
2017-07-04T00:13:09.632Z,1010.75
2017-07-04T00:14:11.052Z,1010.74
2017-07-04T00:15:12.476Z,1010.71
2017-07-04T00:16:13.909Z,1010.70
2017-07-04T00:17:15.337Z,1010.72
2017-07-04T00:18:16.758Z,1010.69
2017-07-04T00:19:18.194Z,1010.66
2017-07-04T00:20:19.609Z,1010.64
2017-07-04T00:21:21.035Z,1010.66
2017-07-04T00:22:22.457Z,1010.67
2017-07-04T00:23:23.881Z,1010.69
2017-07-04T00:24:25.302Z,1010.69
2017-07-04T00:25:26.722Z,1010.67
2017-07-04T00:26:28.145Z,1010.65
2017-07-04T00:27:29.578Z,1010.66
2017-07-04T00:28:31.034Z,1010.66
2017-07-04T00:29:32.466Z,1010.64
2017-07-04T00:30:33.891Z,1010.66
2017-07-04T00:31:35.320Z,1010.68
2017-07-04T00:32:36.737Z,1010.67
2017-07-04T00:33:38.168Z,1010.66
2017-07-04T00:34:39.585Z,1010.62
2017-07-04T00:35:41.001Z,1010.65
2017-07-04T00:36:42.427Z,1010.62
2017-07-04T00:37:43.849Z,1010.61
2017-07-04T00:38:45.284Z,1010.60
2017-07-04T00:39:46.716Z,1010.62
2017-07-04T00:40:48.136Z,1010.61
2017-07-04T00:41:49.557Z,1010.60
2017-07-04T00:42:50.976Z,1010.60
2017-07-04T00:43:52.395Z,1010.58
2017-07-04T00:44:53.824Z,1010.54
2017-07-04T00:45:55.239Z,1010.52
2017-07-04T00:46:56.681Z,1010.57
2017-07-04T00:47:58.105Z,1010.53
2017-07-04T00:48:59.535Z,1010.52
2017-07-04T00:50:00.960Z,1010.49
2017-07-04T00:51:02.387Z,1010.50
2017-07-04T00:52:03.825Z,1010.49
2017-07-04T00:53:05.246Z,1010.46
2017-07-04T00:54:06.676Z,1010.48
2017-07-04T00:55:08.098Z,1010.47
2017-07-04T00:56:09.517Z,1010.47
2017-07-04T00:57:10.946Z,1010.47
2017-07-04T00:58:12.371Z,1010.47
2017-07-04T00:59:13.790Z,1010.47
2017-07-04T01:00:15.214Z,1010.45
2017-07-04T01:01:16.634Z,1010.47
2017-07-04T01:02:18.055Z,1010.48
2017-07-04T01:03:19.474Z,1010.45
2017-07-04T01:04:20.896Z,1010.46
2017-07-04T01:05:22.321Z,1010.48
2017-07-04T01:06:23.745Z,1010.45
2017-07-04T01:07:25.167Z,1010.46
2017-07-04T01:08:26.580Z,1010.46
2017-07-04T01:09:28.007Z,1010.47
2017-07-04T01:10:29.436Z,1010.46
2017-07-04T01:11:30.858Z,1010.48
2017-07-04T01:12:32.280Z,1010.50
2017-07-04T01:13:33.699Z,1010.50
2017-07-04T01:14:35.118Z,1010.52
2017-07-04T01:15:36.543Z,1010.55
2017-07-04T01:16:37.971Z,1010.54
2017-07-04T01:17:39.393Z,1010.54
2017-07-04T01:18:40.840Z,1010.55
2017-07-04T01:19:42.267Z,1010.51
2017-07-04T01:20:43.685Z,1010.53
2017-07-04T01:21:45.114Z,1010.59
2017-07-04T01:22:46.541Z,1010.57
2017-07-04T01:23:47.963Z,1010.62
2017-07-04T01:24:49.377Z,1010.61
2017-07-04T01:25:50.802Z,1010.61
2017-07-04T01:26:52.249Z,1010.61
2017-07-04T01:27:53.677Z,1010.62
2017-07-04T01:28:55.771Z,1010.61
2017-07-04T01:29:57.193Z,1010.58
2017-07-04T01:30:58.617Z,1010.61
2017-07-04T01:32:00.041Z,1010.61
2017-07-04T01:33:01.474Z,1010.57
2017-07-04T01:34:02.895Z,1010.57
2017-07-04T01:35:04.323Z,1010.50
2017-07-04T01:36:06.272Z,1010.54
2017-07-04T01:37:07.705Z,1010.51
2017-07-04T01:38:09.125Z,1010.53
2017-07-04T01:39:10.543Z,1010.49
2017-07-04T01:40:11.968Z,1010.47
2017-07-04T01:41:13.394Z,1010.54
2017-07-04T01:42:14.833Z,1010.51
2017-07-04T01:43:16.248Z,1010.56
2017-07-04T01:44:17.671Z,1010.53
2017-07-04T01:45:19.098Z,1010.56
2017-07-04T01:46:20.517Z,1010.56
2017-07-04T01:47:21.931Z,1010.59
2017-07-04T01:48:23.357Z,1010.57
2017-07-04T01:49:24.778Z,1010.62
2017-07-04T01:50:26.200Z,1010.59
2017-07-04T01:51:27.626Z,1010.61
2017-07-04T01:52:29.057Z,1010.61
2017-07-04T01:53:30.476Z,1010.60
2017-07-04T01:54:31.892Z,1010.66
2017-07-04T01:55:33.319Z,1010.61
2017-07-04T01:56:34.739Z,1010.64
2017-07-04T01:57:36.161Z,1010.61
2017-07-04T01:58:37.585Z,1010.61
2017-07-04T01:59:39.011Z,1010.57
2017-07-04T02:00:40.435Z,1010.57
2017-07-04T02:01:41.937Z,1010.55
2017-07-04T02:02:43.363Z,1010.60
2017-07-04T02:03:44.787Z,1010.59
2017-07-04T02:04:46.207Z,1010.57
2017-07-04T02:05:47.688Z,1010.56
2017-07-04T02:06:49.114Z,1010.56
2017-07-04T02:07:50.572Z,1010.51
2017-07-04T02:08:52.712Z,1010.51
2017-07-04T02:09:54.137Z,1010.53
2017-07-04T02:10:55.551Z,1010.53
2017-07-04T02:11:56.980Z,1010.53
2017-07-04T02:12:58.407Z,1010.50
2017-07-04T02:13:59.814Z,1010.52
2017-07-04T02:15:01.235Z,1010.52
2017-07-04T02:16:02.662Z,1010.49
2017-07-04T02:17:04.084Z,1010.48
2017-07-04T02:18:05.504Z,1010.45
2017-07-04T02:19:06.939Z,1010.45
2017-07-04T02:20:08.364Z,1010.50
2017-07-04T02:21:09.782Z,1010.43
2017-07-04T02:22:11.204Z,1010.49
2017-07-04T02:23:12.635Z,1010.42
2017-07-04T02:24:14.067Z,1010.45
2017-07-04T02:25:15.497Z,1010.42
2017-07-04T02:26:16.922Z,1010.45
2017-07-04T02:27:18.338Z,1010.48
2017-07-04T02:28:19.759Z,1010.42
2017-07-04T02:29:21.186Z,1010.45
2017-07-04T02:30:22.608Z,1010.43
2017-07-04T02:31:24.037Z,1010.47
2017-07-04T02:32:25.477Z,1010.44
2017-07-04T02:33:26.905Z,1010.46
2017-07-04T02:34:28.325Z,1010.51
2017-07-04T02:35:29.745Z,1010.52
2017-07-04T02:36:31.177Z,1010.50
2017-07-04T02:37:32.605Z,1010.54
2017-07-04T02:38:34.026Z,1010.55
2017-07-04T02:39:35.453Z,1010.54
2017-07-04T02:40:36.871Z,1010.53
2017-07-04T02:41:38.293Z,1010.52
2017-07-04T02:42:39.725Z,1010.54
2017-07-04T02:43:41.141Z,1010.51
2017-07-04T02:44:42.572Z,1010.52
2017-07-04T02:45:43.996Z,1010.51
2017-07-04T02:46:45.425Z,1010.52
2017-07-04T02:47:46.850Z,1010.54
2017-07-04T02:48:48.272Z,1010.59
2017-07-04T02:49:49.697Z,1010.58
2017-07-04T02:50:51.115Z,1010.60
2017-07-04T02:51:52.538Z,1010.59
2017-07-04T02:52:53.967Z,1010.62
2017-07-04T02:53:55.392Z,1010.60
2017-07-04T02:54:56.813Z,1010.61
2017-07-04T02:55:58.269Z,1010.64
2017-07-04T02:56:59.647Z,1010.64
2017-07-04T02:58:01.084Z,1010.62
2017-07-04T02:59:02.507Z,1010.64
2017-07-04T03:00:03.928Z,1010.67
2017-07-04T03:01:05.344Z,1010.65
2017-07-04T03:02:06.765Z,1010.67
2017-07-04T03:03:08.189Z,1010.68
2017-07-04T03:04:09.615Z,1010.64
2017-07-04T03:05:11.044Z,1010.66
2017-07-04T03:06:12.462Z,1010.68
2017-07-04T03:07:13.888Z,1010.68
2017-07-04T03:08:15.314Z,1010.64
2017-07-04T03:09:16.732Z,1010.64
2017-07-04T03:10:18.156Z,1010.67
2017-07-04T03:11:19.582Z,1010.65
2017-07-04T03:12:21.003Z,1010.65
2017-07-04T03:13:22.426Z,1010.68
2017-07-04T03:14:23.851Z,1010.70
2017-07-04T03:15:25.285Z,1010.68
2017-07-04T03:16:26.703Z,1010.73
2017-07-04T03:17:28.125Z,1010.73
2017-07-04T03:18:29.546Z,1010.68
2017-07-04T03:19:30.966Z,1010.70
2017-07-04T03:20:32.382Z,1010.68
2017-07-04T03:21:33.806Z,1010.68
2017-07-04T03:22:35.230Z,1010.72
2017-07-04T03:23:36.654Z,1010.76
2017-07-04T03:24:38.077Z,1010.70
2017-07-04T03:25:39.497Z,1010.72
2017-07-04T03:26:40.917Z,1010.70
2017-07-04T03:27:42.357Z,1010.78
2017-07-04T03:28:43.781Z,1010.75
2017-07-04T03:29:45.206Z,1010.70
2017-07-04T03:30:46.628Z,1010.73
2017-07-04T03:31:48.057Z,1010.73
2017-07-04T03:32:49.489Z,1010.73
2017-07-04T03:33:50.905Z,1010.72
2017-07-04T03:34:52.331Z,1010.72
2017-07-04T03:35:53.873Z,1010.73
2017-07-04T03:36:55.304Z,1010.70
2017-07-04T03:37:56.724Z,1010.71
2017-07-04T03:38:58.154Z,1010.68
2017-07-04T03:39:59.580Z,1010.72
2017-07-04T03:41:01.007Z,1010.65
2017-07-04T03:42:02.441Z,1010.68
2017-07-04T03:43:03.873Z,1010.67
2017-07-04T03:44:05.296Z,1010.64
2017-07-04T03:45:06.720Z,1010.61
2017-07-04T03:46:08.144Z,1010.62
2017-07-04T03:47:09.564Z,1010.62
2017-07-04T03:48:10.994Z,1010.65
2017-07-04T03:49:12.425Z,1010.64
2017-07-04T03:50:13.847Z,1010.60
2017-07-04T03:51:15.277Z,1010.65
2017-07-04T03:52:16.693Z,1010.59
2017-07-04T03:53:18.113Z,1010.62
2017-07-04T03:54:19.532Z,1010.62
2017-07-04T03:55:20.948Z,1010.56
2017-07-04T03:56:22.377Z,1010.57
2017-07-04T03:57:23.804Z,1010.55
2017-07-04T03:58:25.228Z,1010.54
2017-07-04T03:59:26.657Z,1010.51
2017-07-04T04:00:28.078Z,1010.56
2017-07-04T04:01:29.508Z,1010.55
2017-07-04T04:02:30.927Z,1010.52
2017-07-04T04:03:32.351Z,1010.53
2017-07-04T04:04:33.777Z,1010.54
2017-07-04T04:05:35.209Z,1010.59
2017-07-04T04:06:36.647Z,1010.55
2017-07-04T04:07:38.077Z,1010.59
2017-07-04T04:08:39.503Z,1010.58
2017-07-04T04:09:40.926Z,1010.65
2017-07-04T04:10:42.350Z,1010.62
2017-07-04T04:11:43.781Z,1010.64
2017-07-04T04:12:45.269Z,1010.64
2017-07-04T04:13:46.648Z,1010.64
2017-07-04T04:14:48.072Z,1010.67
2017-07-04T04:15:49.494Z,1010.69
2017-07-04T04:16:50.919Z,1010.67
2017-07-04T04:17:52.338Z,1010.65
2017-07-04T04:18:53.777Z,1010.69
2017-07-04T04:19:55.206Z,1010.69
2017-07-04T04:20:56.632Z,1010.68
2017-07-04T04:21:58.058Z,1010.72
2017-07-04T04:22:59.482Z,1010.71
2017-07-04T04:24:00.903Z,1010.71
2017-07-04T04:25:02.337Z,1010.73
2017-07-04T04:26:03.775Z,1010.78
2017-07-04T04:27:05.221Z,1010.79
2017-07-04T04:28:06.659Z,1010.82
2017-07-04T04:29:08.089Z,1010.83
2017-07-04T04:30:09.512Z,1010.82
2017-07-04T04:31:10.933Z,1010.83
2017-07-04T04:32:12.356Z,1010.82
2017-07-04T04:33:13.805Z,1010.81
2017-07-04T04:34:15.214Z,1010.84
2017-07-04T04:35:16.640Z,1010.86
2017-07-04T04:36:18.119Z,1010.87
2017-07-04T04:37:19.550Z,1010.86
2017-07-04T04:38:20.976Z,1010.86
2017-07-04T04:39:22.415Z,1010.84
2017-07-04T04:40:23.870Z,1010.88
2017-07-04T04:41:25.298Z,1010.88
2017-07-04T04:42:26.737Z,1010.92
2017-07-04T04:43:28.158Z,1010.87
2017-07-04T04:44:29.597Z,1010.93
2017-07-04T04:45:31.026Z,1010.95
2017-07-04T04:46:32.449Z,1010.95
2017-07-04T04:47:33.987Z,1010.98
2017-07-04T04:48:35.430Z,1010.95
2017-07-04T04:49:36.858Z,1010.93
2017-07-04T04:50:38.289Z,1010.96
2017-07-04T04:51:39.749Z,1011.01
2017-07-04T04:52:41.177Z,1010.94
2017-07-04T04:53:42.604Z,1010.99
2017-07-04T04:54:44.058Z,1010.99
2017-07-04T04:55:45.504Z,1010.96
2017-07-04T04:56:46.929Z,1010.93
2017-07-04T04:57:48.353Z,1010.98
2017-07-04T04:58:49.886Z,1010.96
2017-07-04T04:59:51.316Z,1010.95
2017-07-04T05:00:52.746Z,1010.95
2017-07-04T05:01:54.174Z,1010.90
2017-07-04T05:02:55.614Z,1010.96
2017-07-04T05:03:57.047Z,1010.94
2017-07-04T05:04:58.476Z,1010.95
2017-07-04T05:05:59.912Z,1011.00
2017-07-04T05:07:01.432Z,1010.96
2017-07-04T05:08:02.861Z,1010.97
2017-07-04T05:09:04.285Z,1011.00
2017-07-04T05:10:05.740Z,1010.97
2017-07-04T05:11:07.163Z,1010.96
2017-07-04T05:12:08.601Z,1010.97
2017-07-04T05:13:10.029Z,1011.01
2017-07-04T05:14:11.461Z,1010.96
2017-07-04T05:15:12.890Z,1010.98
2017-07-04T05:16:14.331Z,1010.98
2017-07-04T05:17:15.772Z,1011.03
2017-07-04T05:18:17.205Z,1011.06
2017-07-04T05:19:18.639Z,1011.08
2017-07-04T05:20:20.197Z,1010.99
2017-07-04T05:21:21.654Z,1011.04
2017-07-04T05:22:23.079Z,1011.07
2017-07-04T05:23:24.502Z,1011.09
2017-07-04T05:24:25.962Z,1011.06
2017-07-04T05:25:27.391Z,1011.11
2017-07-04T05:26:28.813Z,1011.11
2017-07-04T05:27:30.238Z,1011.12
2017-07-04T05:28:31.720Z,1011.14
2017-07-04T05:29:33.159Z,1011.19
2017-07-04T05:30:34.583Z,1011.13
2017-07-04T05:31:36.091Z,1011.20
2017-07-04T05:32:37.528Z,1011.16
2017-07-04T05:33:38.965Z,1011.13
2017-07-04T05:34:40.402Z,1011.18
2017-07-04T05:35:41.833Z,1011.15
2017-07-04T05:36:43.270Z,1011.17
2017-07-04T05:37:44.700Z,1011.14
2017-07-04T05:38:46.137Z,1011.21
2017-07-04T05:39:47.564Z,1011.24
2017-07-04T05:40:48.994Z,1011.23
2017-07-04T05:41:50.418Z,1011.19
2017-07-04T05:42:51.866Z,1011.20
2017-07-04T05:43:53.299Z,1011.22
2017-07-04T05:44:54.729Z,1011.20
2017-07-04T05:45:56.152Z,1011.19
2017-07-04T05:46:57.579Z,1011.21
2017-07-04T05:47:59.007Z,1011.26
2017-07-04T05:49:00.431Z,1011.22
2017-07-04T05:50:01.858Z,1011.25
2017-07-04T05:51:03.295Z,1011.21
2017-07-04T05:52:04.724Z,1011.25
2017-07-04T05:53:06.147Z,1011.20
2017-07-04T05:54:07.581Z,1011.20
2017-07-04T05:55:09.003Z,1011.15
2017-07-04T05:56:10.431Z,1011.19
2017-07-04T05:57:11.857Z,1011.15
2017-07-04T05:58:13.290Z,1011.18
2017-07-04T05:59:14.718Z,1011.15
2017-07-04T06:00:16.151Z,1011.16
2017-07-04T06:01:17.585Z,1011.20
2017-07-04T06:02:19.012Z,1011.25
2017-07-04T06:03:20.459Z,1011.21
2017-07-04T06:04:21.891Z,1011.23
2017-07-04T06:05:23.324Z,1011.19
2017-07-04T06:06:24.746Z,1011.25
2017-07-04T06:07:26.179Z,1011.26
2017-07-04T06:08:27.613Z,1011.25
2017-07-04T06:09:29.033Z,1011.32
2017-07-04T06:10:30.460Z,1011.33
2017-07-04T06:11:31.889Z,1011.33
2017-07-04T06:12:33.316Z,1011.30
2017-07-04T06:13:34.742Z,1011.29
2017-07-04T06:14:36.166Z,1011.31
2017-07-04T06:15:37.596Z,1011.39
2017-07-04T06:16:39.029Z,1011.35
2017-07-04T06:17:40.458Z,1011.36
2017-07-04T06:18:41.891Z,1011.37
2017-07-04T06:19:43.316Z,1011.38
2017-07-04T06:20:44.743Z,1011.40
2017-07-04T06:21:46.167Z,1011.44
2017-07-04T06:22:47.611Z,1011.42
2017-07-04T06:23:49.057Z,1011.48
2017-07-04T06:24:50.458Z,1011.46
2017-07-04T06:25:51.884Z,1011.47
2017-07-04T06:26:53.310Z,1011.43
2017-07-04T06:27:54.737Z,1011.46
2017-07-04T06:28:56.165Z,1011.49
2017-07-04T06:29:57.601Z,1011.45
2017-07-04T06:30:59.040Z,1011.38
2017-07-04T06:32:00.573Z,1011.40
2017-07-04T06:33:02.000Z,1011.41
2017-07-04T06:34:04.142Z,1011.39
2017-07-04T06:35:05.570Z,1011.41
2017-07-04T06:36:07.001Z,1011.41
2017-07-04T06:37:08.426Z,1011.41
2017-07-04T06:38:09.860Z,1011.41
2017-07-04T06:39:11.286Z,1011.39
2017-07-04T06:40:12.708Z,1011.44
2017-07-04T06:41:14.132Z,1011.45
2017-07-04T06:42:15.564Z,1011.43
2017-07-04T06:43:17.341Z,1011.43
2017-07-04T06:44:18.371Z,1011.44
2017-07-04T06:45:19.801Z,1011.47
2017-07-04T06:46:21.225Z,1011.53
2017-07-04T06:47:22.660Z,1011.54
2017-07-04T06:48:24.086Z,1011.58
2017-07-04T06:49:25.519Z,1011.51
2017-07-04T06:50:26.953Z,1011.50
2017-07-04T06:51:28.377Z,1011.54
2017-07-04T06:52:29.812Z,1011.62
2017-07-04T06:53:31.242Z,1011.57
2017-07-04T06:54:32.684Z,1011.65
2017-07-04T06:55:34.116Z,1011.68
2017-07-04T06:56:35.538Z,1011.66
2017-07-04T06:57:36.972Z,1011.71
2017-07-04T06:58:38.411Z,1011.71
2017-07-04T06:59:39.837Z,1011.68
2017-07-04T07:00:41.271Z,1011.73
2017-07-04T07:01:42.702Z,1011.77
2017-07-04T07:02:44.128Z,1011.73
2017-07-04T07:03:45.555Z,1011.81
2017-07-04T07:04:46.980Z,1011.86
2017-07-04T07:05:48.418Z,1011.88
2017-07-04T07:06:49.840Z,1011.86
2017-07-04T07:07:51.280Z,1011.82
2017-07-04T07:08:52.712Z,1011.85
2017-07-04T07:09:54.139Z,1011.88
2017-07-04T07:10:55.562Z,1011.89
2017-07-04T07:11:56.992Z,1011.83
2017-07-04T07:12:58.426Z,1011.85
2017-07-04T07:13:59.849Z,1011.82
2017-07-04T07:15:01.274Z,1011.82
2017-07-04T07:16:02.710Z,1011.81
2017-07-04T07:17:04.139Z,1011.85
2017-07-04T07:18:05.570Z,1011.83
2017-07-04T07:19:06.997Z,1011.84
2017-07-04T07:20:08.432Z,1011.84
2017-07-04T07:21:09.852Z,1011.87
2017-07-04T07:22:11.295Z,1011.90
2017-07-04T07:23:12.719Z,1011.87
2017-07-04T07:24:14.150Z,1011.88
2017-07-04T07:25:15.575Z,1011.91
2017-07-04T07:26:16.996Z,1011.90
2017-07-04T07:27:18.421Z,1011.90
2017-07-04T07:28:19.846Z,1011.88
2017-07-04T07:29:21.319Z,1011.89
2017-07-04T07:30:22.707Z,1011.89
2017-07-04T07:31:24.129Z,1011.90
2017-07-04T07:32:25.561Z,1011.89
2017-07-04T07:33:26.990Z,1011.89
2017-07-04T07:34:28.425Z,1011.86
2017-07-04T07:35:29.889Z,1011.87
2017-07-04T07:36:31.314Z,1011.92
2017-07-04T07:37:32.750Z,1011.91
2017-07-04T07:38:34.185Z,1011.88
2017-07-04T07:39:35.625Z,1011.91
2017-07-04T07:40:37.108Z,1011.90
2017-07-04T07:41:38.629Z,1011.88
2017-07-04T07:42:40.060Z,1011.90
2017-07-04T07:43:41.494Z,1011.93
2017-07-04T07:44:42.931Z,1011.90
2017-07-04T07:45:44.364Z,1011.93
2017-07-04T07:46:45.790Z,1011.92
2017-07-04T07:47:47.224Z,1011.95
2017-07-04T07:48:48.658Z,1011.94
2017-07-04T07:49:50.098Z,1011.96
2017-07-04T07:50:51.527Z,1011.98
2017-07-04T07:51:52.956Z,1012.02
2017-07-04T07:52:54.382Z,1012.03
2017-07-04T07:53:55.812Z,1012.03
2017-07-04T07:54:57.240Z,1012.05
2017-07-04T07:55:58.675Z,1012.04
2017-07-04T07:57:00.113Z,1012.04
2017-07-04T07:58:01.588Z,1012.04
2017-07-04T07:59:03.021Z,1012.03
2017-07-04T08:00:04.445Z,1012.01
2017-07-04T08:01:05.877Z,1012.04
2017-07-04T08:02:07.321Z,1012.06
2017-07-04T08:03:08.748Z,1012.08
2017-07-04T08:04:10.176Z,1012.11
2017-07-04T08:05:11.606Z,1012.10
2017-07-04T08:06:13.033Z,1012.13
2017-07-04T08:07:14.471Z,1012.12
2017-07-04T08:08:15.899Z,1012.16
2017-07-04T08:09:17.340Z,1012.15
2017-07-04T08:10:18.771Z,1012.14
2017-07-04T08:11:20.202Z,1012.17
2017-07-04T08:12:21.649Z,1012.13
2017-07-04T08:13:23.079Z,1012.10
2017-07-04T08:14:24.504Z,1012.10
2017-07-04T08:15:25.927Z,1012.06
2017-07-04T08:16:27.362Z,1012.10
2017-07-04T08:17:28.801Z,1012.10
2017-07-04T08:18:30.224Z,1012.10
2017-07-04T08:19:31.656Z,1012.08
2017-07-04T08:20:33.078Z,1012.13
2017-07-04T08:21:34.510Z,1012.10
2017-07-04T08:22:35.949Z,1012.12
2017-07-04T08:23:37.385Z,1012.11
2017-07-04T08:24:38.817Z,1012.07
2017-07-04T08:25:40.245Z,1012.04
2017-07-04T08:26:41.682Z,1012.02
2017-07-04T08:27:43.110Z,1012.06
2017-07-04T08:28:44.536Z,1012.07
2017-07-04T08:29:45.966Z,1012.03
2017-07-04T08:30:47.415Z,1012.02
2017-07-04T08:31:48.877Z,1012.02
2017-07-04T08:32:50.295Z,1012.04
2017-07-04T08:33:51.725Z,1012.04
2017-07-04T08:34:53.163Z,1012.00
2017-07-04T08:35:54.579Z,1011.98
2017-07-04T08:36:56.007Z,1011.99
2017-07-04T08:37:57.440Z,1012.00
2017-07-04T08:38:58.870Z,1011.96
2017-07-04T08:40:00.300Z,1012.00
2017-07-04T08:41:01.737Z,1012.02
2017-07-04T08:42:03.163Z,1012.00
2017-07-04T08:43:04.596Z,1012.00
2017-07-04T08:44:06.033Z,1011.91
2017-07-04T08:45:07.464Z,1011.92
2017-07-04T08:46:08.898Z,1011.91
2017-07-04T08:47:10.332Z,1011.93
2017-07-04T08:48:11.759Z,1011.94
2017-07-04T08:49:13.209Z,1011.86
2017-07-04T08:50:14.637Z,1011.80
2017-07-04T08:51:16.082Z,1011.80
2017-07-04T08:52:17.510Z,1011.79
2017-07-04T08:53:18.954Z,1011.79
2017-07-04T08:54:20.378Z,1011.78
2017-07-04T08:55:21.804Z,1011.80
2017-07-04T08:56:23.237Z,1011.84
2017-07-04T08:57:24.668Z,1011.88
2017-07-04T08:58:26.110Z,1011.84
2017-07-04T08:59:27.544Z,1011.76
2017-07-04T09:00:28.972Z,1011.78
2017-07-04T09:01:30.397Z,1011.77
2017-07-04T09:02:31.828Z,1011.76
2017-07-04T09:03:33.277Z,1011.80
2017-07-04T09:04:34.700Z,1011.78
2017-07-04T09:05:36.130Z,1011.73
2017-07-04T09:06:37.564Z,1011.74
2017-07-04T09:07:38.998Z,1011.73
2017-07-04T09:08:40.427Z,1011.76
2017-07-04T09:09:41.865Z,1011.82
2017-07-04T09:10:43.298Z,1011.78
2017-07-04T09:11:44.742Z,1011.81
2017-07-04T09:12:46.174Z,1011.80
2017-07-04T09:13:47.599Z,1011.86
2017-07-04T09:14:49.030Z,1011.81
2017-07-04T09:15:50.458Z,1011.82
2017-07-04T09:16:51.896Z,1011.86
2017-07-04T09:17:53.326Z,1011.88
2017-07-04T09:18:54.759Z,1011.92
2017-07-04T09:19:56.197Z,1011.94
2017-07-04T09:20:57.633Z,1011.91
2017-07-04T09:21:59.069Z,1011.89
2017-07-04T09:23:00.500Z,1011.92
2017-07-04T09:24:01.989Z,1011.91
2017-07-04T09:25:03.417Z,1011.88
2017-07-04T09:26:04.850Z,1011.98
2017-07-04T09:27:06.282Z,1012.00
2017-07-04T09:28:07.748Z,1012.00
2017-07-04T09:29:09.195Z,1011.96
2017-07-04T09:30:10.625Z,1011.94
2017-07-04T09:31:12.063Z,1011.90
2017-07-04T09:32:13.498Z,1011.88
2017-07-04T09:33:14.927Z,1011.93
2017-07-04T09:34:16.356Z,1011.97
2017-07-04T09:35:17.849Z,1012.00
2017-07-04T09:36:19.300Z,1011.89
2017-07-04T09:37:20.719Z,1011.98
2017-07-04T09:38:22.151Z,1011.94
2017-07-04T09:39:23.579Z,1011.92
2017-07-04T09:40:25.016Z,1011.91
2017-07-04T09:41:26.445Z,1011.89
2017-07-04T09:42:27.879Z,1011.92
2017-07-04T09:43:29.395Z,1012.00
2017-07-04T09:44:30.826Z,1011.85
2017-07-04T09:45:32.257Z,1011.85
2017-07-04T09:46:33.686Z,1011.90
2017-07-04T09:47:35.112Z,1011.84
2017-07-04T09:48:36.547Z,1011.84
2017-07-04T09:49:38.080Z,1011.78
2017-07-04T09:50:39.530Z,1011.78
2017-07-04T09:51:40.957Z,1011.80
2017-07-04T09:52:42.384Z,1011.78
2017-07-04T09:53:43.823Z,1011.87
2017-07-04T09:54:45.250Z,1011.84
2017-07-04T09:55:46.685Z,1011.84
2017-07-04T09:56:48.181Z,1011.87
2017-07-04T09:57:49.615Z,1011.91
2017-07-04T09:58:51.049Z,1011.90
2017-07-04T09:59:52.485Z,1011.88
2017-07-04T10:00:53.924Z,1011.89
2017-07-04T10:01:55.360Z,1011.85
2017-07-04T10:02:56.794Z,1011.86
2017-07-04T10:03:58.223Z,1011.80
2017-07-04T10:04:59.666Z,1011.80
2017-07-04T10:06:01.099Z,1011.77
2017-07-04T10:07:02.536Z,1011.80
2017-07-04T10:08:03.979Z,1011.82
2017-07-04T10:09:05.421Z,1011.82
2017-07-04T10:10:06.847Z,1011.80
2017-07-04T10:11:08.286Z,1011.77
2017-07-04T10:12:09.808Z,1011.78
2017-07-04T10:13:11.243Z,1011.78
2017-07-04T10:14:12.689Z,1011.78
2017-07-04T10:15:14.150Z,1011.75
2017-07-04T10:16:15.582Z,1011.77
2017-07-04T10:17:17.008Z,1011.77
2017-07-04T10:18:18.440Z,1011.77
2017-07-04T10:19:19.876Z,1011.75
2017-07-04T10:20:21.311Z,1011.81
2017-07-04T10:21:22.747Z,1011.76
2017-07-04T10:22:24.177Z,1011.78
2017-07-04T10:23:25.612Z,1011.75
2017-07-04T10:24:27.051Z,1011.71
2017-07-04T10:25:28.487Z,1011.77
2017-07-04T10:26:29.945Z,1011.74
2017-07-04T10:27:31.381Z,1011.63
2017-07-04T10:28:32.816Z,1011.71
2017-07-04T10:29:34.249Z,1011.70
2017-07-04T10:30:35.683Z,1011.75
2017-07-04T10:31:37.117Z,1011.78
2017-07-04T10:32:38.562Z,1011.75
2017-07-04T10:33:40.002Z,1011.69
2017-07-04T10:34:41.437Z,1011.70
2017-07-04T10:35:42.881Z,1011.75
2017-07-04T10:36:44.318Z,1011.76
2017-07-04T10:37:45.743Z,1011.82
2017-07-04T10:38:47.174Z,1011.80
2017-07-04T10:39:48.607Z,1011.80
2017-07-04T10:40:50.132Z,1011.79
2017-07-04T10:41:51.580Z,1011.80
2017-07-04T10:42:53.013Z,1011.73
2017-07-04T10:43:54.448Z,1011.69
2017-07-04T10:44:55.889Z,1011.63
2017-07-04T10:45:57.322Z,1011.61
2017-07-04T10:46:58.766Z,1011.60
2017-07-04T10:48:00.196Z,1011.54
2017-07-04T10:49:01.632Z,1011.55
2017-07-04T10:50:03.071Z,1011.61
2017-07-04T10:51:04.539Z,1011.62
2017-07-04T10:52:05.985Z,1011.61
2017-07-04T10:53:07.423Z,1011.67
2017-07-04T10:54:08.862Z,1011.68
2017-07-04T10:55:10.299Z,1011.71
2017-07-04T10:56:11.728Z,1011.71
2017-07-04T10:57:13.168Z,1011.76
2017-07-04T10:58:14.609Z,1011.75
2017-07-04T10:59:16.051Z,1011.75
2017-07-04T11:00:17.481Z,1011.70
2017-07-04T11:01:18.919Z,1011.64
2017-07-04T11:02:20.352Z,1011.68
2017-07-04T11:03:21.782Z,1011.64
2017-07-04T11:04:23.211Z,1011.61
2017-07-04T11:05:24.643Z,1011.59
2017-07-04T11:06:26.079Z,1011.53
2017-07-04T11:07:27.510Z,1011.57
2017-07-04T11:08:28.940Z,1011.63
2017-07-04T11:09:30.382Z,1011.65
2017-07-04T11:10:31.806Z,1011.72
2017-07-04T11:11:35.213Z,1011.73
2017-07-04T11:12:36.652Z,1011.74
2017-07-04T11:13:38.085Z,1011.73
2017-07-04T11:14:39.515Z,1011.80
2017-07-04T11:15:40.949Z,1011.78
2017-07-04T11:16:42.387Z,1011.72
2017-07-04T11:17:43.833Z,1011.73
2017-07-04T11:18:45.274Z,1011.71
2017-07-04T11:19:46.706Z,1011.73
2017-07-04T11:20:48.131Z,1011.74
2017-07-04T11:21:49.584Z,1011.73
2017-07-04T11:22:51.015Z,1011.74
2017-07-04T11:23:52.440Z,1011.75
2017-07-04T11:24:53.870Z,1011.77
2017-07-04T11:25:55.305Z,1011.75
2017-07-04T11:26:56.735Z,1011.84
2017-07-04T11:27:58.173Z,1011.85
2017-07-04T11:28:59.606Z,1011.77
2017-07-04T11:30:01.033Z,1011.74
2017-07-04T11:31:02.477Z,1011.79
2017-07-04T11:32:03.902Z,1011.81
2017-07-04T11:33:05.335Z,1011.81
2017-07-04T11:34:06.782Z,1011.82
2017-07-04T11:35:08.201Z,1011.78
2017-07-04T11:36:09.643Z,1011.85
2017-07-04T11:37:11.091Z,1011.75
2017-07-04T11:38:12.509Z,1011.72
2017-07-04T11:39:13.947Z,1011.74
2017-07-04T11:40:15.399Z,1011.69
2017-07-04T11:41:16.837Z,1011.70
2017-07-04T11:42:18.271Z,1011.71
2017-07-04T11:43:19.709Z,1011.71
2017-07-04T11:44:21.154Z,1011.71
2017-07-04T11:45:22.587Z,1011.72
2017-07-04T11:46:24.021Z,1011.69
2017-07-04T11:47:25.456Z,1011.68
2017-07-04T11:48:26.886Z,1011.68
2017-07-04T11:49:28.309Z,1011.71
2017-07-04T11:50:29.745Z,1011.74
2017-07-04T11:51:31.181Z,1011.72
2017-07-04T11:52:32.609Z,1011.73
2017-07-04T11:53:34.043Z,1011.77
2017-07-04T11:54:35.475Z,1011.73
2017-07-04T11:55:36.908Z,1011.64
2017-07-04T11:56:38.343Z,1011.66
2017-07-04T11:57:39.770Z,1011.64
2017-07-04T11:58:41.204Z,1011.62
2017-07-04T11:59:42.631Z,1011.66
2017-07-04T12:00:44.069Z,1011.66
2017-07-04T12:01:45.498Z,1011.65
2017-07-04T12:02:46.931Z,1011.62
2017-07-04T12:03:48.368Z,1011.68
2017-07-04T12:04:49.812Z,1011.68
2017-07-04T12:05:51.249Z,1011.68
2017-07-04T12:06:52.675Z,1011.70
2017-07-04T12:07:54.110Z,1011.63
2017-07-04T12:08:55.552Z,1011.70
2017-07-04T12:09:56.995Z,1011.66
2017-07-04T12:10:58.431Z,1011.68
2017-07-04T12:11:59.859Z,1011.68
2017-07-04T12:13:01.290Z,1011.79
2017-07-04T12:14:02.723Z,1011.83
2017-07-04T12:15:04.159Z,1011.79
2017-07-04T12:16:05.594Z,1011.83
2017-07-04T12:17:07.028Z,1011.83
2017-07-04T12:18:08.463Z,1011.85
2017-07-04T12:19:09.899Z,1011.87
2017-07-04T12:20:11.339Z,1011.79
2017-07-04T12:21:12.770Z,1011.80
2017-07-04T12:22:14.214Z,1011.81
2017-07-04T12:23:15.640Z,1011.80